Time;durP1;ratioP1;P1;durP2;ratioP2;P2;SDS_P1;SDS_P2;PMS_P1;PMS_P2;Temp;Humidity;BMP_temperature;BMP_pressure;BME280_temperature;BME280_humidity;BME280_pressure;Samples;Min_cycle;Max_cycle;Signal;HPM_P1;HPM_P2
2023/03/05 00:01:43;;;;;;;8.55;5.20;;;3.00;99.90;;;;;;4813741;29;20054;-60
2023/03/05 00:04:15;;;;;;;11.43;5.70;;;3.00;99.90;;;;;;4820341;29;20483;-61
2023/03/05 00:06:44;;;;;;;9.35;5.60;;;2.90;99.90;;;;;;4816301;29;20046;-62
2023/03/05 00:09:12;;;;;;;9.95;5.43;;;2.90;99.90;;;;;;4801617;29;20051;-61
2023/03/05 00:11:40;;;;;;;10.60;4.97;;;2.90;99.90;;;;;;4802416;29;20423;-61
2023/03/05 00:14:09;;;;;;;7.60;5.45;;;2.90;99.90;;;;;;4813570;29;20046;-63
2023/03/05 00:16:37;;;;;;;9.73;5.63;;;2.90;99.90;;;;;;4818010;29;20061;-61
2023/03/05 00:19:07;;;;;;;9.50;5.20;;;2.80;99.90;;;;;;4835224;29;20053;-60
2023/03/05 00:21:38;;;;;;;16.25;5.63;;;2.80;99.90;;;;;;4830282;29;20054;-61
2023/03/05 00:24:10;;;;;;;17.40;5.75;;;2.80;99.90;;;;;;4828551;29;20042;-61
2023/03/05 00:26:39;;;;;;;14.25;5.65;;;2.80;99.90;;;;;;4819769;29;20535;-61
2023/03/05 00:29:08;;;;;;;13.23;5.85;;;2.80;99.90;;;;;;4815085;29;20278;-60
2023/03/05 00:31:37;;;;;;;8.52;5.82;;;2.80;99.90;;;;;;4797812;29;20046;-62
2023/03/05 00:34:09;;;;;;;10.82;6.50;;;2.80;99.90;;;;;;4826616;29;20054;-61
2023/03/05 00:36:43;;;;;;;12.55;4.90;;;2.80;99.90;;;;;;4810363;29;20217;-60
2023/03/05 00:39:12;;;;;;;9.50;5.25;;;2.80;99.90;;;;;;4819871;29;20050;-60
2023/03/05 00:41:40;;;;;;;16.92;5.40;;;2.80;99.90;;;;;;4821791;29;20055;-60
2023/03/05 00:44:09;;;;;;;8.57;5.22;;;2.70;99.90;;;;;;4811090;29;20050;-61
2023/03/05 00:46:37;;;;;;;9.55;5.93;;;2.80;99.90;;;;;;4799930;29;20499;-61
2023/03/05 00:49:14;;;;;;;9.63;5.53;;;2.80;99.90;;;;;;4834596;29;20079;-62
2023/03/05 00:51:47;;;;;;;11.65;6.13;;;2.70;99.90;;;;;;4829537;29;20812;-61
2023/03/05 00:54:15;;;;;;;14.27;6.32;;;2.70;99.90;;;;;;4813608;29;20380;-61
2023/03/05 00:56:43;;;;;;;13.00;5.30;;;2.70;99.90;;;;;;4815300;29;20055;-61
2023/03/05 00:59:14;;;;;;;18.63;5.78;;;2.70;99.90;;;;;;4825015;29;20052;-61
2023/03/05 01:01:42;;;;;;;11.32;5.72;;;2.70;99.90;;;;;;4816269;29;20061;-60
2023/03/05 01:04:10;;;;;;;9.40;5.40;;;2.70;99.90;;;;;;4806012;29;20515;-60
2023/03/05 01:06:43;;;;;;;12.73;5.85;;;2.70;99.90;;;;;;4816322;29;20054;-60
2023/03/05 01:09:13;;;;;;;14.95;6.13;;;2.70;99.90;;;;;;4829957;29;20054;-61
2023/03/05 01:11:41;;;;;;;8.80;5.40;;;2.80;99.90;;;;;;4831280;29;20042;-60
2023/03/05 01:14:08;;;;;;;13.30;6.20;;;2.70;99.90;;;;;;4810160;29;20042;-61
2023/03/05 01:16:37;;;;;;;14.27;5.60;;;2.70;99.90;;;;;;4803062;29;20047;-60
2023/03/05 01:19:05;;;;;;;15.07;5.90;;;2.70;99.90;;;;;;4820964;29;20488;-60
2023/03/05 01:21:34;;;;;;;17.25;6.43;;;2.80;99.90;;;;;;4800947;29;20057;-60
2023/03/05 01:24:03;;;;;;;9.45;5.45;;;2.70;99.90;;;;;;4824744;29;20054;-60
2023/03/05 01:26:30;;;;;;;10.45;5.72;;;2.80;99.90;;;;;;4830054;29;20057;-61
2023/03/05 01:28:58;;;;;;;19.23;5.75;;;2.70;99.90;;;;;;4819363;29;20046;-60
2023/03/05 01:31:26;;;;;;;21.80;6.00;;;2.80;99.90;;;;;;4818213;29;20054;-60
2023/03/05 01:33:54;;;;;;;11.95;5.00;;;2.70;99.90;;;;;;4806189;29;20046;-60
2023/03/05 01:36:23;;;;;;;10.88;5.50;;;2.80;99.90;;;;;;4800537;29;20047;-59
2023/03/05 01:38:52;;;;;;;14.15;5.88;;;2.70;99.90;;;;;;4818866;29;20279;-60
2023/03/05 01:41:20;;;;;;;10.30;5.75;;;2.80;99.90;;;;;;4835344;29;20057;-59
2023/03/05 01:43:48;;;;;;;13.10;6.38;;;2.80;99.90;;;;;;4819080;29;20057;-61
2023/03/05 01:46:34;;;;;;;13.45;5.80;;;2.80;99.90;;;;;;4834585;29;20050;-61
2023/03/05 01:49:04;;;;;;;9.10;4.50;;;2.90;99.90;;;;;;4821134;29;20046;-60
2023/03/05 01:51:35;;;;;;;;;;;2.90;99.90;;;;;;4812366;29;20058;-60
2023/03/05 01:54:06;;;;;;;12.48;5.07;;;2.80;99.90;;;;;;4822465;29;19924;-60
2023/03/05 01:56:39;;;;;;;7.70;4.57;;;2.80;99.90;;;;;;4832767;29;20058;-60
2023/03/05 01:59:07;;;;;;;10.70;4.70;;;2.80;99.90;;;;;;4820627;29;20042;-59
2023/03/05 02:01:42;;;;;;;7.43;4.40;;;2.80;99.90;;;;;;4813468;29;20073;-60
2023/03/05 02:04:14;;;;;;;10.32;4.53;;;2.90;99.90;;;;;;4806735;29;20066;-60
2023/03/05 02:06:43;;;;;;;11.20;4.80;;;2.90;99.90;;;;;;4812548;29;20069;-59
2023/03/05 02:09:11;;;;;;;7.97;4.38;;;2.90;99.90;;;;;;4809843;29;20058;-59
2023/03/05 02:11:40;;;;;;;8.30;4.38;;;2.90;99.90;;;;;;4804995;29;20059;-59
2023/03/05 02:14:08;;;;;;;8.40;4.00;;;2.90;99.90;;;;;;4819869;29;20529;-60
2023/03/05 02:16:41;;;;;;;8.77;4.00;;;2.90;99.90;;;;;;4802476;29;20047;-61
2023/03/05 02:19:10;;;;;;;12.70;4.90;;;2.90;99.90;;;;;;4837253;29;20050;-61
2023/03/05 02:21:46;;;;;;;10.80;4.30;;;2.90;99.90;;;;;;4827242;29;20051;-61
2023/03/05 02:24:32;;;;;;;9.80;3.95;;;2.90;99.90;;;;;;4806933;29;20055;-61
2023/03/05 02:27:01;;;;;;;7.15;3.78;;;2.90;99.90;;;;;;4799821;29;20058;-59
2023/03/05 02:29:32;;;;;;;6.38;3.95;;;2.90;99.90;;;;;;4825983;29;20073;-60
2023/03/05 02:32:00;;;;;;;14.00;4.55;;;3.00;99.90;;;;;;4809056;29;20063;-59
2023/03/05 02:34:28;;;;;;;5.90;3.28;;;3.00;99.90;;;;;;4810505;29;20051;-60
2023/03/05 02:36:57;;;;;;;6.65;4.28;;;3.00;99.90;;;;;;4812116;29;20051;-60
2023/03/05 02:39:25;;;;;;;7.70;4.68;;;2.90;99.90;;;;;;4836993;29;20091;-60
2023/03/05 02:41:58;;;;;;;6.55;3.90;;;3.00;99.90;;;;;;4823187;29;20050;-60
2023/03/05 02:44:27;;;;;;;7.03;4.10;;;3.00;99.90;;;;;;4820711;29;20069;-60
2023/03/05 02:46:55;;;;;;;8.98;3.90;;;3.00;99.90;;;;;;4817244;29;20061;-60
2023/03/05 02:49:22;;;;;;;14.50;4.63;;;2.90;99.90;;;;;;4842474;29;20073;-62
2023/03/05 02:51:50;;;;;;;17.65;4.78;;;3.00;99.90;;;;;;4843529;29;20049;-60
2023/03/05 02:54:18;;;;;;;9.95;4.63;;;3.00;99.90;;;;;;4829893;29;20078;-61
2023/03/05 02:56:46;;;;;;;7.82;4.32;;;3.00;99.90;;;;;;4825385;29;20042;-61
2023/03/05 02:59:13;;;;;;;7.32;4.07;;;3.10;99.90;;;;;;4823563;29;20046;-61
2023/03/05 03:01:41;;;;;;;13.07;4.45;;;3.00;99.90;;;;;;4824056;29;20043;-61
2023/03/05 03:04:09;;;;;;;10.50;4.22;;;3.00;99.90;;;;;;4823149;29;20055;-61
2023/03/05 03:06:37;;;;;;;7.93;4.25;;;3.10;99.90;;;;;;4819993;29;20384;-59
2023/03/05 03:09:04;;;;;;;6.60;4.03;;;3.10;99.90;;;;;;4807164;29;20063;-60
2023/03/05 03:11:32;;;;;;;9.93;4.30;;;3.00;99.90;;;;;;4812932;29;20062;-60
2023/03/05 03:14:00;;;;;;;9.65;3.67;;;3.10;99.90;;;;;;4824102;29;20503;-60
2023/03/05 03:16:27;;;;;;;10.85;4.05;;;3.10;99.90;;;;;;4824777;29;20050;-61
2023/03/05 03:18:56;;;;;;;4.57;4.00;;;3.00;99.90;;;;;;4843231;29;20054;-60
2023/03/05 03:21:25;;;;;;;7.45;3.50;;;3.00;99.90;;;;;;4842826;29;20054;-59
2023/03/05 03:23:53;;;;;;;14.07;4.00;;;3.00;99.90;;;;;;4832745;29;20057;-59
2023/03/05 03:26:21;;;;;;;6.82;3.83;;;3.00;99.90;;;;;;4824735;29;20050;-60
2023/03/05 03:28:49;;;;;;;7.13;4.20;;;3.00;99.90;;;;;;4814137;29;20054;-60
2023/03/05 03:31:17;;;;;;;10.02;4.38;;;3.00;99.90;;;;;;4806616;29;20519;-61
2023/03/05 03:33:45;;;;;;;6.75;3.97;;;3.00;99.90;;;;;;4814124;29;20399;-61
2023/03/05 03:36:13;;;;;;;6.47;3.63;;;3.00;99.90;;;;;;4808983;29;20054;-61
2023/03/05 03:38:40;;;;;;;13.27;3.85;;;2.90;99.90;;;;;;4806465;29;20479;-60
2023/03/05 03:41:08;;;;;;;7.60;3.80;;;2.90;99.90;;;;;;4806257;29;20047;-61
2023/03/05 03:43:36;;;;;;;8.02;4.25;;;2.90;99.90;;;;;;4820296;29;20522;-61
2023/03/05 03:46:07;;;;;;;6.53;3.30;;;2.90;99.90;;;;;;4824039;29;20057;-60
2023/03/05 03:48:38;;;;;;;7.93;4.65;;;2.90;99.90;;;;;;4840265;29;20058;-60
2023/03/05 03:51:06;;;;;;;10.65;4.18;;;2.90;99.90;;;;;;4842520;29;20046;-59
2023/03/05 03:53:34;;;;;;;6.60;4.38;;;2.90;99.90;;;;;;4835296;29;20050;-59
2023/03/05 03:56:02;;;;;;;13.80;4.57;;;2.90;99.90;;;;;;4824225;29;20061;-59
2023/03/05 03:58:30;;;;;;;11.43;4.22;;;2.90;99.90;;;;;;4824246;29;20053;-61
2023/03/05 04:00:57;;;;;;;12.02;4.43;;;2.90;99.90;;;;;;4824235;29;20050;-61
2023/03/05 04:03:28;;;;;;;9.55;4.07;;;2.90;99.90;;;;;;4822727;29;20055;-60
2023/03/05 04:05:55;;;;;;;11.57;4.28;;;2.90;99.90;;;;;;4823278;29;20046;-60
2023/03/05 04:08:23;;;;;;;7.47;4.43;;;2.90;99.90;;;;;;4819563;29;20065;-60
2023/03/05 04:10:51;;;;;;;7.35;4.28;;;2.80;99.90;;;;;;4823173;29;20046;-60
2023/03/05 04:13:18;;;;;;;6.68;4.22;;;2.90;99.90;;;;;;4823766;29;20062;-59
2023/03/05 04:15:46;;;;;;;7.07;4.40;;;2.90;99.90;;;;;;4823727;29;20050;-60
2023/03/05 04:18:13;;;;;;;8.10;4.50;;;2.90;99.90;;;;;;4836907;29;20041;-59
2023/03/05 04:20:41;;;;;;;9.60;4.63;;;3.00;99.90;;;;;;4840900;29;20494;-61
2023/03/05 04:23:08;;;;;;;7.90;4.47;;;3.00;99.90;;;;;;4838425;29;20047;-60
2023/03/05 04:25:39;;;;;;;11.27;4.85;;;2.90;99.90;;;;;;4823799;29;20046;-60
2023/03/05 04:28:11;;;;;;;9.68;4.60;;;2.90;99.90;;;;;;4823766;29;20077;-59
2023/03/05 04:30:38;;;;;;;8.85;4.55;;;2.90;99.90;;;;;;4823845;29;20055;-61
2023/03/05 04:33:08;;;;;;;10.82;5.18;;;2.90;99.90;;;;;;4823785;29;20116;-61
2023/03/05 04:35:36;;;;;;;8.63;4.40;;;3.00;99.90;;;;;;4823589;29;20058;-60
2023/03/05 04:38:07;;;;;;;6.25;4.25;;;3.00;99.90;;;;;;4822546;29;20056;-60
2023/03/05 04:40:35;;;;;;;14.50;4.43;;;2.90;99.90;;;;;;4810357;29;20055;-61
2023/03/05 04:43:03;;;;;;;8.57;4.35;;;3.00;99.90;;;;;;4807009;29;20074;-60
2023/03/05 04:45:32;;;;;;;9.25;4.55;;;3.00;99.90;;;;;;4823637;29;20054;-59
2023/03/05 04:48:00;;;;;;;9.50;4.85;;;3.00;99.90;;;;;;4834639;29;20061;-60
2023/03/05 04:50:27;;;;;;;13.07;5.22;;;2.90;99.90;;;;;;4841496;29;20045;-59
2023/03/05 04:52:56;;;;;;;12.88;5.53;;;3.00;99.90;;;;;;4840565;29;20054;-60
2023/03/05 04:55:23;;;;;;;9.73;5.57;;;2.90;99.90;;;;;;4822174;29;20058;-59
2023/03/05 04:57:51;;;;;;;16.10;5.85;;;2.90;99.90;;;;;;4821251;29;20061;-60
2023/03/05 05:00:20;;;;;;;7.82;4.47;;;2.90;99.90;;;;;;4823481;29;20484;-60
2023/03/05 05:02:49;;;;;;;9.77;4.53;;;2.90;99.90;;;;;;4823326;29;20069;-60
2023/03/05 05:05:20;;;;;;;10.10;5.55;;;2.90;99.90;;;;;;4805028;29;20394;-60
2023/03/05 05:07:49;;;;;;;8.60;4.75;;;3.00;99.90;;;;;;4804768;29;20165;-60
2023/03/05 05:10:16;;;;;;;12.70;4.82;;;2.90;99.90;;;;;;4804812;29;20054;-60
2023/03/05 05:12:44;;;;;;;9.65;4.43;;;3.00;99.90;;;;;;4804944;29;20051;-60
2023/03/05 05:15:12;;;;;;;11.20;5.00;;;2.90;99.90;;;;;;4822555;29;20407;-60
2023/03/05 05:17:39;;;;;;;6.90;4.15;;;3.00;99.90;;;;;;4826489;29;20061;-59
2023/03/05 05:20:11;;;;;;;9.77;4.78;;;3.00;99.90;;;;;;4841266;29;20057;-59
2023/03/05 05:22:39;;;;;;;7.72;3.95;;;3.00;99.90;;;;;;4840877;29;20050;-60
2023/03/05 05:25:09;;;;;;;8.20;3.70;;;3.00;99.90;;;;;;4822861;29;20063;-60
2023/03/05 05:27:38;;;;;;;10.23;4.45;;;3.00;99.90;;;;;;4822977;29;20065;-60
2023/03/05 05:30:07;;;;;;;13.40;4.43;;;2.90;99.90;;;;;;4823029;29;20054;-60
2023/03/05 05:32:34;;;;;;;6.82;3.97;;;3.00;99.90;;;;;;4823161;29;20054;-61
2023/03/05 05:35:02;;;;;;;9.02;3.80;;;3.00;99.90;;;;;;4822912;29;20054;-60
2023/03/05 05:37:30;;;;;;;13.15;4.22;;;2.90;99.90;;;;;;4822888;29;20074;-61
2023/03/05 05:39:58;;;;;;;9.50;4.38;;;3.00;99.90;;;;;;4822857;29;20065;-59
2023/03/05 05:42:26;;;;;;;11.77;4.63;;;3.00;99.90;;;;;;4822636;29;20058;-61
2023/03/05 05:44:54;;;;;;;8.27;4.03;;;2.90;99.90;;;;;;4821727;29;20061;-60
2023/03/05 05:47:22;;;;;;;7.90;3.72;;;2.90;99.90;;;;;;4820460;29;20606;-60
2023/03/05 05:49:50;;;;;;;8.45;3.83;;;2.90;99.90;;;;;;4801508;29;20412;-60
2023/03/05 05:52:18;;;;;;;10.23;4.75;;;2.90;99.90;;;;;;4800193;29;20055;-60
2023/03/05 05:54:45;;;;;;;9.65;4.35;;;2.90;99.90;;;;;;4814797;29;20053;-59
2023/03/05 05:57:13;;;;;;;7.45;4.05;;;2.90;99.90;;;;;;4820488;29;20050;-59
2023/03/05 05:59:41;;;;;;;13.38;5.13;;;2.90;99.90;;;;;;4836567;29;20061;-60
2023/03/05 06:02:11;;;;;;;7.75;4.68;;;2.90;99.90;;;;;;4825528;29;20058;-61
2023/03/05 06:04:41;;;;;;;7.60;4.78;;;2.90;99.90;;;;;;4809660;29;20503;-60
2023/03/05 06:07:11;;;;;;;11.77;4.82;;;2.90;99.90;;;;;;4814166;29;20050;-60
2023/03/05 06:09:39;;;;;;;9.18;4.38;;;2.90;99.90;;;;;;4826368;29;20538;-60
2023/03/05 06:12:07;;;;;;;13.95;4.60;;;2.90;99.90;;;;;;4815737;29;20514;-61
2023/03/05 06:14:35;;;;;;;11.60;5.05;;;3.00;99.90;;;;;;4825348;29;20624;-60
2023/03/05 06:17:02;;;;;;;11.02;4.13;;;3.00;99.90;;;;;;4809729;29;20065;-60
2023/03/05 06:19:31;;;;;;;9.77;3.75;;;2.90;99.90;;;;;;4807531;29;20058;-59
2023/03/05 06:21:59;;;;;;;13.20;3.63;;;2.90;99.90;;;;;;4804466;29;20789;-59
2023/03/05 06:24:33;;;;;;;12.85;4.60;;;2.90;99.90;;;;;;4826271;29;20890;-61
2023/03/05 06:27:15;;;;;;;11.07;4.30;;;2.90;99.90;;;;;;4819273;29;20419;-60
2023/03/05 06:29:46;;;;;;;8.35;4.07;;;2.80;99.90;;;;;;4819673;29;20414;-59
2023/03/05 06:32:14;;;;;;;11.48;4.47;;;2.80;99.90;;;;;;4819772;29;20523;-60
2023/03/05 06:34:41;;;;;;;7.45;3.90;;;2.60;99.90;;;;;;4815774;29;20419;-60
2023/03/05 06:37:12;;;;;;;6.82;4.13;;;2.70;99.90;;;;;;4822375;29;20050;-60
2023/03/05 06:39:42;;;;;;;10.18;4.97;;;2.70;99.90;;;;;;4840582;29;20058;-60
2023/03/05 06:42:10;;;;;;;8.77;4.45;;;2.70;99.90;;;;;;4840221;29;20078;-60
2023/03/05 06:44:39;;;;;;;6.72;4.13;;;2.70;99.90;;;;;;4827011;29;20962;-60
2023/03/05 06:47:10;;;;;;;7.17;4.57;;;2.80;99.90;;;;;;4822593;29;20053;-59
2023/03/05 06:49:38;;;;;;;10.10;4.22;;;2.70;99.90;;;;;;4819613;29;20062;-59
2023/03/05 06:52:08;;;;;;;11.85;4.93;;;2.70;99.90;;;;;;4820739;29;20448;-60
2023/03/05 06:54:40;;;;;;;11.32;4.75;;;2.70;99.90;;;;;;4823828;29;20062;-59
2023/03/05 06:57:09;;;;;;;13.07;4.93;;;2.70;99.90;;;;;;4819356;29;20057;-59
2023/03/05 06:59:37;;;;;;;9.68;4.72;;;2.80;99.90;;;;;;4839099;29;20054;-59
2023/03/05 07:02:05;;;;;;;7.15;4.40;;;2.70;99.90;;;;;;4837744;29;20065;-59
2023/03/05 07:04:33;;;;;;;11.73;5.18;;;2.80;99.90;;;;;;4818560;29;20059;-59
2023/03/05 07:07:01;;;;;;;10.48;5.28;;;2.80;99.90;;;;;;4820551;29;20051;-60
2023/03/05 07:09:29;;;;;;;8.02;4.18;;;2.90;99.90;;;;;;4809672;29;20061;-61
2023/03/05 07:11:57;;;;;;;10.60;5.70;;;2.80;99.90;;;;;;4820242;29;20057;-60
2023/03/05 07:14:27;;;;;;;9.60;4.82;;;2.90;99.90;;;;;;4827854;29;20062;-61
2023/03/05 07:16:55;;;;;;;11.88;5.30;;;2.90;99.90;;;;;;4823362;29;20053;-60
2023/03/05 07:19:26;;;;;;;9.43;5.00;;;2.90;99.90;;;;;;4814717;29;20066;-61
2023/03/05 07:21:54;;;;;;;11.15;5.13;;;2.90;99.90;;;;;;4803549;29;20427;-60
2023/03/05 07:24:26;;;;;;;15.98;6.15;;;2.90;99.90;;;;;;4833783;29;20054;-60
2023/03/05 07:26:53;;;;;;;15.75;5.35;;;3.00;99.90;;;;;;4818995;29;20050;-61
2023/03/05 07:29:22;;;;;;;10.10;4.80;;;3.00;99.90;;;;;;4835416;29;20553;-60
2023/03/05 07:31:50;;;;;;;10.88;5.57;;;3.00;99.90;;;;;;4821215;29;20051;-60
2023/03/05 07:34:17;;;;;;;9.32;5.30;;;2.90;99.90;;;;;;4803374;29;20055;-60
2023/03/05 07:36:48;;;;;;;9.73;4.65;;;3.00;99.90;;;;;;4818467;29;20549;-60
2023/03/05 07:39:19;;;;;;;12.60;6.15;;;2.90;99.90;;;;;;4811779;29;20058;-60
2023/03/05 07:41:49;;;;;;;10.25;5.15;;;3.00;99.90;;;;;;4802041;29;20055;-60
2023/03/05 07:44:19;;;;;;;11.98;5.50;;;2.90;99.90;;;;;;4838297;29;20132;-60
2023/03/05 07:46:46;;;;;;;12.70;5.10;;;3.00;99.90;;;;;;4827434;29;20054;-60
2023/03/05 07:49:20;;;;;;;9.77;5.20;;;2.90;99.90;;;;;;4820866;29;20051;-59
2023/03/05 07:51:48;;;;;;;8.32;4.25;;;3.50;99.90;;;;;;4803154;29;20051;-60
2023/03/05 07:54:15;;;;;;;12.07;5.18;;;2.90;99.90;;;;;;4838654;29;20414;-60
2023/03/05 07:56:45;;;;;;;12.47;4.63;;;2.80;99.90;;;;;;4825763;29;20395;-59
2023/03/05 07:59:18;;;;;;;8.18;4.28;;;2.90;99.90;;;;;;4837666;29;20565;-61
2023/03/05 08:01:45;;;;;;;14.10;5.30;;;2.90;99.90;;;;;;4837679;29;20077;-60
2023/03/05 08:04:13;;;;;;;12.25;4.60;;;2.90;99.90;;;;;;4820138;29;20055;-61
2023/03/05 08:06:45;;;;;;;11.07;5.10;;;2.90;99.90;;;;;;4811533;29;20554;-61
2023/03/05 08:09:13;;;;;;;9.00;3.97;;;2.80;99.90;;;;;;4836912;29;20537;-60
2023/03/05 08:11:41;;;;;;;11.32;4.80;;;2.90;99.90;;;;;;4833144;29;20068;-60
2023/03/05 08:14:12;;;;;;;7.45;4.50;;;2.90;99.90;;;;;;4836812;29;20060;-60
2023/03/05 08:16:40;;;;;;;10.65;4.10;;;2.90;99.90;;;;;;4828687;29;20057;-60
2023/03/05 08:19:10;;;;;;;8.70;3.92;;;2.90;99.90;;;;;;4826047;29;20059;-60
2023/03/05 08:21:37;;;;;;;9.65;4.75;;;2.90;99.90;;;;;;4802494;29;20062;-60
2023/03/05 08:24:07;;;;;;;9.68;4.65;;;2.90;99.90;;;;;;4835252;29;20057;-60
2023/03/05 08:26:37;;;;;;;9.10;4.53;;;3.10;99.90;;;;;;4828124;29;20499;-60
2023/03/05 08:29:06;;;;;;;8.32;4.55;;;3.00;99.90;;;;;;4835589;29;20491;-59
2023/03/05 08:31:34;;;;;;;9.40;4.45;;;3.00;99.90;;;;;;4838849;29;20045;-60
2023/03/05 08:34:03;;;;;;;9.63;4.93;;;3.00;99.90;;;;;;4829212;29;20055;-61
2023/03/05 08:36:30;;;;;;;12.93;4.47;;;3.00;99.90;;;;;;4805879;29;20051;-60
2023/03/05 08:38:58;;;;;;;9.90;4.18;;;3.00;99.90;;;;;;4830573;29;20491;-60
2023/03/05 08:41:29;;;;;;;7.07;3.80;;;3.00;99.90;;;;;;4838492;29;20049;-59
2023/03/05 08:43:57;;;;;;;6.88;3.10;;;3.10;99.90;;;;;;4837066;29;20046;-60
2023/03/05 08:46:25;;;;;;;8.40;3.75;;;3.00;99.90;;;;;;4830839;29;20053;-62
2023/03/05 08:48:55;;;;;;;7.57;3.95;;;3.10;99.90;;;;;;4832290;29;20049;-60
2023/03/05 08:51:29;;;;;;;6.53;3.97;;;3.00;99.90;;;;;;4801931;29;20061;-60
2023/03/05 08:53:58;;;;;;;8.75;4.28;;;3.00;99.90;;;;;;4832468;29;20053;-60
2023/03/05 08:56:29;;;;;;;9.40;4.38;;;3.00;99.90;;;;;;4830817;29;20054;-61
2023/03/05 08:58:57;;;;;;;8.43;4.40;;;3.00;99.90;;;;;;4833943;29;20049;-61
2023/03/05 09:01:26;;;;;;;7.38;4.25;;;3.10;99.90;;;;;;4814904;29;20051;-61
2023/03/05 09:03:58;;;;;;;9.23;3.90;;;3.00;99.90;;;;;;4828185;29;20065;-61
2023/03/05 09:06:26;;;;;;;5.60;3.73;;;3.10;99.90;;;;;;4801846;29;20065;-61
2023/03/05 09:08:54;;;;;;;8.15;4.38;;;3.10;99.90;;;;;;4832417;29;20061;-61
2023/03/05 09:11:22;;;;;;;10.05;3.90;;;3.20;99.90;;;;;;4837992;29;20054;-61
2023/03/05 09:13:50;;;;;;;7.18;4.45;;;3.20;99.90;;;;;;4837372;29;20513;-62
2023/03/05 09:16:18;;;;;;;6.95;3.75;;;3.20;99.90;;;;;;4838247;29;20512;-60
2023/03/05 09:18:49;;;;;;;7.32;3.35;;;3.30;99.90;;;;;;4826720;29;20407;-60
2023/03/05 09:21:20;;;;;;;6.88;3.88;;;3.30;99.90;;;;;;4801571;29;20065;-60
2023/03/05 09:23:48;;;;;;;7.82;4.30;;;3.40;99.90;;;;;;4829308;29;20093;-60
2023/03/05 09:26:18;;;;;;;7.60;3.72;;;3.40;99.90;;;;;;4837806;29;20058;-60
2023/03/05 09:28:46;;;;;;;10.30;3.97;;;3.50;99.90;;;;;;4836477;29;20053;-60
2023/03/05 09:31:14;;;;;;;6.03;2.90;;;3.70;99.90;;;;;;4820785;29;20058;-60
2023/03/05 09:33:42;;;;;;;8.18;3.30;;;3.70;99.90;;;;;;4832778;29;20054;-60
2023/03/05 09:36:21;;;;;;;5.95;2.63;;;3.70;99.90;;;;;;4804377;29;20063;-60
2023/03/05 09:38:50;;;;;;;7.78;2.50;;;3.80;99.90;;;;;;4827256;29;20131;-59
2023/03/05 09:41:39;;;;;;;6.03;2.60;;;3.80;99.90;;;;;;4826002;29;20046;-60
2023/03/05 09:44:15;;;;;;;6.45;2.65;;;3.90;99.90;;;;;;4834943;29;20402;-60
2023/03/05 09:47:01;;;;;;;5.38;2.38;;;4.00;99.90;;;;;;4837933;29;20367;-61
2023/03/05 09:49:53;;;;;;;3.75;2.25;;;4.10;99.90;;;;;;4830598;29;20047;-60
2023/03/05 09:52:32;;;;;;;2.92;2.10;;;4.30;99.90;;;;;;4818580;29;20073;-59
2023/03/05 09:55:00;;;;;;;4.38;2.35;;;4.50;99.90;;;;;;4837657;29;20399;-60
2023/03/05 09:57:37;;;;;;;8.60;2.95;;;4.70;99.90;;;;;;4836489;29;20065;-60
2023/03/05 10:00:20;;;;;;;5.75;2.60;;;4.80;99.90;;;;;;4837701;29;20049;-60
2023/03/05 10:02:54;;;;;;;3.60;2.45;;;4.90;99.90;;;;;;4821107;29;20064;-61
2023/03/05 10:05:29;;;;;;;3.75;2.25;;;5.00;99.90;;;;;;4826373;29;20046;-59
2023/03/05 10:08:02;;;;;;;5.93;2.30;;;5.10;99.90;;;;;;4825014;29;20050;-59
2023/03/05 10:10:52;;;;;;;4.90;2.38;;;5.20;99.90;;;;;;4820388;29;20043;-61
2023/03/05 10:13:35;;;;;;;;;;;5.30;99.90;;;;;;4826239;29;20054;-59
2023/03/05 10:16:40;;;;;;;5.18;2.53;;;5.40;99.90;;;;;;4817847;29;19925;-60
2023/03/05 10:19:27;;;;;;;8.13;2.22;;;5.50;99.90;;;;;;4837286;29;20514;-59
2023/03/05 10:22:16;;;;;;;5.65;2.30;;;5.50;99.90;;;;;;4800892;29;20062;-59
2023/03/05 10:25:15;;;;;;;4.10;1.83;;;5.50;99.90;;;;;;4805478;29;20054;-60
2023/03/05 10:28:16;;;;;;;6.30;1.88;;;5.60;99.90;;;;;;4813909;29;20372;-60
2023/03/05 10:31:02;;;;;;;4.85;2.20;;;5.70;99.90;;;;;;4801934;29;20062;-60
2023/03/05 10:34:10;;;;;;;7.18;2.20;;;5.70;99.90;;;;;;4822890;29;20046;-60
2023/03/05 10:36:58;;;;;;;2.97;1.58;;;5.70;99.90;;;;;;4808532;29;20042;-61
2023/03/05 10:39:47;;;;;;;3.40;1.90;;;5.80;99.90;;;;;;4814265;29;20403;-61
2023/03/05 10:42:27;;;;;;;4.15;2.38;;;6.00;99.90;;;;;;4821017;29;20057;-60
2023/03/05 10:44:59;;;;;;;10.70;2.85;;;6.00;99.90;;;;;;4837252;29;20061;-61
2023/03/05 10:47:27;;;;;;;;;;;6.00;99.90;;;;;;4821920;29;20565;-61
2023/03/05 10:49:56;;;;;;;4.15;2.20;;;6.10;99.90;;;;;;4815519;29;20401;-61
2023/03/05 10:52:35;;;;;;;3.47;2.20;;;6.10;99.90;;;;;;4806885;29;20061;-61
2023/03/05 10:55:17;;;;;;;3.97;2.30;;;6.10;99.90;;;;;;4837561;29;20438;-61
2023/03/05 10:57:46;;;;;;;10.32;2.30;;;6.10;99.90;;;;;;4840327;29;20479;-61
2023/03/05 11:00:22;;;;;;;3.60;2.00;;;6.10;99.90;;;;;;4830052;29;20070;-61
2023/03/05 11:03:03;;;;;;;5.40;2.55;;;6.20;99.90;;;;;;4828336;29;20061;-61
2023/03/05 11:05:37;;;;;;;2.85;1.73;;;6.20;99.90;;;;;;4807841;29;20062;-59
2023/03/05 11:08:29;;;;;;;4.40;2.10;;;6.30;99.90;;;;;;4807418;29;20050;-59
2023/03/05 11:11:12;;;;;;;3.25;2.42;;;6.40;99.90;;;;;;4814572;29;20054;-60
2023/03/05 11:13:51;;;;;;;4.30;2.00;;;6.50;99.90;;;;;;4833545;29;20486;-60
2023/03/05 11:16:28;;;;;;;3.90;2.38;;;6.50;99.90;;;;;;4839646;29;20662;-60
2023/03/05 11:19:21;;;;;;;5.35;2.00;;;6.60;99.90;;;;;;4839150;29;20053;-59
2023/03/05 11:22:19;;;;;;;6.15;2.42;;;6.70;99.90;;;;;;4818018;29;20047;-60
2023/03/05 11:25:14;;;;;;;3.75;1.90;;;6.90;99.90;;;;;;4803096;29;20050;-60
2023/03/05 11:27:59;;;;;;;7.20;2.33;;;7.00;99.90;;;;;;4810561;29;20505;-60
2023/03/05 11:30:33;;;;;;;3.42;2.03;;;7.00;99.90;;;;;;4839999;29;20050;-60
2023/03/05 11:33:12;;;;;;;5.68;1.92;;;7.00;99.90;;;;;;4838078;29;20057;-60
2023/03/05 11:35:42;;;;;;;3.42;2.25;;;7.00;99.90;;;;;;4825029;29;20046;-60
2023/03/05 11:38:25;;;;;;;4.03;2.15;;;7.00;99.90;;;;;;4818384;29;20065;-60
2023/03/05 11:40:56;;;;;;;2.42;1.80;;;7.10;99.90;;;;;;4839743;29;20053;-60
2023/03/05 11:43:25;;;;;;;1.95;1.38;;;7.10;99.90;;;;;;4839308;29;20046;-60
2023/03/05 11:46:03;;;;;;;2.00;1.77;;;7.10;99.90;;;;;;4810753;29;20491;-60
2023/03/05 11:48:35;;;;;;;2.28;1.70;;;7.10;99.90;;;;;;4812669;29;20067;-60
2023/03/05 11:51:14;;;;;;;2.42;1.70;;;7.10;99.90;;;;;;4811849;29;20065;-60
2023/03/05 11:53:44;;;;;;;2.50;1.63;;;7.10;99.90;;;;;;4829603;29;20061;-60
2023/03/05 11:56:30;;;;;;;4.15;2.03;;;7.00;99.90;;;;;;4818083;29;20050;-59
2023/03/05 11:59:17;;;;;;;2.45;1.48;;;7.10;99.90;;;;;;4821371;29;20050;-59
2023/03/05 12:01:51;;;;;;;2.70;1.65;;;7.10;99.90;;;;;;4819465;29;20073;-60
2023/03/05 12:04:19;;;;;;;1.42;1.30;;;7.10;99.90;;;;;;4833814;29;20438;-60
2023/03/05 12:06:57;;;;;;;4.05;1.75;;;7.10;99.90;;;;;;4821668;29;20050;-60
2023/03/05 12:09:44;;;;;;;3.13;1.70;;;7.00;99.90;;;;;;4820053;29;20047;-60
2023/03/05 12:12:43;;;;;;;5.70;1.95;;;7.00;99.90;;;;;;4821980;29;20511;-58
2023/03/05 12:15:11;;;;;;;2.60;1.80;;;7.10;99.90;;;;;;4824653;29;20411;-59
2023/03/05 12:17:42;;;;;;;4.05;1.50;;;7.10;99.90;;;;;;4826444;29;20065;-61
2023/03/05 12:20:13;;;;;;;2.10;1.45;;;7.10;99.90;;;;;;4820906;29;20066;-60
2023/03/05 12:22:41;;;;;;;;;;;7.20;99.90;;;;;;4824156;29;20450;-60
2023/03/05 12:25:31;;;;;;;3.28;1.58;;;7.30;99.90;;;;;;4837901;29;19928;-59
2023/03/05 12:28:00;;;;;;;4.53;1.60;;;7.30;99.90;;;;;;4831370;29;20047;-60
2023/03/05 12:30:33;;;;;;;2.72;1.27;;;7.30;99.90;;;;;;4818850;29;20047;-59
2023/03/05 12:33:07;;;;;;;3.85;1.60;;;7.30;99.90;;;;;;4826055;29;20467;-60
2023/03/05 12:35:39;;;;;;;3.70;1.85;;;7.30;99.90;;;;;;4834326;29;20042;-59
2023/03/05 12:38:37;;;;;;;3.15;1.63;;;7.10;99.90;;;;;;4811393;29;20057;-59
2023/03/05 12:41:24;;;;;;;4.43;2.00;;;7.00;99.90;;;;;;4798410;29;20632;-59
2023/03/05 12:44:06;;;;;;;2.33;1.15;;;6.90;99.90;;;;;;4827135;29;20060;-59
2023/03/05 12:46:42;;;;;;;3.15;2.08;;;6.80;99.90;;;;;;4835175;29;20053;-59
2023/03/05 12:49:19;;;;;;;2.88;1.40;;;6.70;99.90;;;;;;4835271;29;20060;-60
2023/03/05 12:51:52;;;;;;;2.42;1.60;;;6.70;99.90;;;;;;4818265;29;20061;-59
2023/03/05 12:54:26;;;;;;;2.58;1.60;;;6.70;99.90;;;;;;4832959;29;20363;-60
2023/03/05 12:56:59;;;;;;;5.85;1.73;;;6.70;99.90;;;;;;4835364;29;20058;-60
2023/03/05 12:59:41;;;;;;;1.77;1.40;;;6.80;99.90;;;;;;4833828;29;20049;-59
2023/03/05 13:02:36;;;;;;;2.78;1.65;;;6.80;99.90;;;;;;4834657;29;20050;-59
2023/03/05 13:05:16;;;;;;;1.98;1.50;;;6.90;99.90;;;;;;4818633;29;20066;-60
2023/03/05 13:07:43;;;;;;;;;;;6.90;99.90;;;;;;4809166;29;20046;-60
2023/03/05 13:10:23;;;;;;;4.13;1.50;;;6.90;99.90;;;;;;4835135;29;19928;-60
2023/03/05 13:12:53;;;;;;;3.50;1.50;;;6.90;99.90;;;;;;4833781;29;20053;-59
2023/03/05 13:15:25;;;;;;;4.30;1.50;;;6.90;99.90;;;;;;4834825;29;20486;-59
2023/03/05 13:17:59;;;;;;;1.65;1.13;;;7.70;99.90;;;;;;4833053;29;20046;-59
2023/03/05 13:20:37;;;;;;;4.60;1.73;;;6.80;99.90;;;;;;4827037;29;20059;-59